Las Vegas, Nevada
Traffic Map
Current Weather Conditions
Las Vegas, Nevada
Clear
Clear
19°
Feels Like: 19°
Wind Chill: 19° Ceiling: Unl
Heat Index: 19° Visibility: 10mi
Dew Point: -4° Wind: 9mph
Humidity: 20% Direction: 210° (SSW)
Pressure: 30.01in Gusts: 0mph
Raw Report DataKLAS 280856Z 21008KT 10SM CLR 19/M04 A3001 RMK AO2 SLP144 T01941044 55002
Traffic Incident Summary
Active as of:
Severity:
Category:
InformationThere was an issue retrieving the traffic information for this location. Please try a different location or try again shortly.
Advertisements
Track Severe Weather on mobile